Time;durP1;ratioP1;P1;durP2;ratioP2;P2;SDS_P1;SDS_P2;PMS_P1;PMS_P2;Temp;Humidity;BMP_temperature;BMP_pressure;BME280_temperature;BME280_humidity;BME280_pressure;Samples;Min_cycle;Max_cycle;Signal;HPM_P1;HPM_P2
2022/05/16 00:01:31;;;;;;;3.00;1.65;;;25.60;35.30;;;;;;5123559;27;20485;-42
2022/05/16 00:03:57;;;;;;;2.22;1.60;;;25.60;35.30;;;;;;5141359;27;20041;-42
2022/05/16 00:06:23;;;;;;;3.20;1.70;;;25.60;35.60;;;;;;5140785;27;20007;-42
2022/05/16 00:08:49;;;;;;;2.80;1.70;;;25.60;35.40;;;;;;5141117;27;20020;-43
2022/05/16 00:11:15;;;;;;;4.07;1.40;;;25.50;35.30;;;;;;5140934;27;20525;-43
2022/05/16 00:13:42;;;;;;;2.35;1.60;;;25.60;35.40;;;;;;5140164;27;20058;-41
2022/05/16 00:16:09;;;;;;;3.88;1.70;;;25.60;35.40;;;;;;5139460;27;20011;-40
2022/05/16 00:18:35;;;;;;;5.68;1.70;;;25.60;35.40;;;;;;5140931;27;20462;-41
2022/05/16 00:21:01;;;;;;;2.08;1.40;;;25.60;35.50;;;;;;5140289;27;20477;-41
2022/05/16 00:23:27;;;;;;;3.60;1.95;;;25.60;35.50;;;;;;5139062;27;20098;-40
2022/05/16 00:25:52;;;;;;;2.75;1.70;;;25.60;35.50;;;;;;5137682;27;20018;-41
2022/05/16 00:28:18;;;;;;;1.80;1.48;;;25.60;35.50;;;;;;5139148;27;20038;-40
2022/05/16 00:30:44;;;;;;;3.60;1.70;;;25.50;35.50;;;;;;5138120;27;20071;-43
2022/05/16 00:33:10;;;;;;;3.45;1.60;;;25.60;35.60;;;;;;5138877;27;20060;-39
2022/05/16 00:35:35;;;;;;;3.13;1.60;;;25.50;35.50;;;;;;5137712;27;20012;-41
2022/05/16 00:38:01;;;;;;;4.10;1.75;;;25.60;35.60;;;;;;5138511;27;20018;-40
2022/05/16 00:40:27;;;;;;;3.30;1.60;;;25.50;35.50;;;;;;5139850;27;20022;-41
2022/05/16 00:43:01;;;;;;;2.47;1.48;;;25.50;35.60;;;;;;5139961;28;20094;-40
2022/05/16 00:45:27;;;;;;;2.20;1.73;;;25.50;35.60;;;;;;5137788;27;20019;-40
2022/05/16 00:47:54;;;;;;;2.22;1.60;;;25.60;35.70;;;;;;5138432;28;20572;-40
2022/05/16 00:50:20;;;;;;;3.28;1.60;;;25.50;35.60;;;;;;5138768;27;20022;-40
2022/05/16 00:52:48;;;;;;;3.83;1.60;;;25.50;35.60;;;;;;5138477;28;20022;-42
2022/05/16 00:55:20;;;;;;;2.42;1.50;;;25.50;35.70;;;;;;5142198;27;20092;-39
2022/05/16 00:57:48;;;;;;;2.35;1.60;;;25.50;35.70;;;;;;5126170;27;20019;-40
2022/05/16 01:00:16;;;;;;;3.38;1.83;;;25.50;35.70;;;;;;5122221;27;20011;-40
2022/05/16 01:05:28;;;;;;;2.90;1.75;;;25.50;35.80;;;;;;5138161;27;20038;-39
2022/05/16 01:08:01;;;;;;;2.80;1.67;;;25.50;35.80;;;;;;5139255;27;20012;-39
2022/05/16 01:10:27;;;;;;;2.65;1.55;;;25.50;35.80;;;;;;5137660;27;20019;-39
2022/05/16 01:12:53;;;;;;;2.72;1.80;;;25.50;35.80;;;;;;5137486;27;20030;-38
2022/05/16 01:15:33;;;;;;;3.47;1.75;;;25.50;35.90;;;;;;5137981;27;20015;-39
2022/05/16 01:17:58;;;;;;;3.28;1.65;;;25.50;35.90;;;;;;5138384;27;20020;-39
2022/05/16 01:20:28;;;;;;;3.95;1.83;;;25.50;35.90;;;;;;5138049;27;20563;-38
2022/05/16 01:22:54;;;;;;;4.45;1.60;;;25.50;36.00;;;;;;5120201;27;20481;-39
2022/05/16 01:25:27;;;;;;;4.70;1.83;;;25.40;35.90;;;;;;5137669;27;20076;-38
2022/05/16 01:27:55;;;;;;;3.85;1.75;;;25.50;36.10;;;;;;5120109;27;20015;-39
2022/05/16 01:30:23;;;;;;;3.67;1.70;;;25.40;36.00;;;;;;5137659;27;20016;-40
2022/05/16 01:32:49;;;;;;;3.97;1.65;;;25.40;36.00;;;;;;5137703;27;20473;-38
2022/05/16 01:35:23;;;;;;;2.70;1.80;;;25.40;36.00;;;;;;5138184;27;20118;-39
2022/05/16 01:40:34;;;;;;;2.97;2.00;;;25.40;36.00;;;;;;5138087;27;20038;-38
2022/05/16 01:43:00;;;;;;;3.05;1.80;;;25.40;36.20;;;;;;5138307;27;20027;-40
2022/05/16 01:45:26;;;;;;;2.45;1.73;;;25.40;36.70;;;;;;5138844;27;20039;-39
2022/05/16 01:47:53;;;;;;;4.13;2.05;;;25.40;36.20;;;;;;5137607;27;20064;-38
2022/05/16 01:50:19;;;;;;;3.65;1.73;;;25.40;36.20;;;;;;5138355;27;20098;-38
2022/05/16 01:52:46;;;;;;;2.95;1.60;;;25.40;36.20;;;;;;5137649;27;20469;-38
2022/05/16 01:55:11;;;;;;;2.95;1.70;;;25.40;36.20;;;;;;5138605;27;20012;-39
2022/05/16 01:57:38;;;;;;;2.45;1.65;;;25.40;36.30;;;;;;5138785;27;20504;-40
2022/05/16 02:00:05;;;;;;;2.75;1.88;;;25.40;36.30;;;;;;5140401;27;20016;-40
2022/05/16 02:02:32;;;;;;;3.50;1.67;;;25.40;36.30;;;;;;5140463;27;20012;-39
2022/05/16 02:04:58;;;;;;;4.35;2.17;;;25.40;36.30;;;;;;5139081;27;20444;-40
2022/05/16 02:07:24;;;;;;;2.97;1.73;;;25.40;36.40;;;;;;5139486;27;20024;-38
2022/05/16 02:09:50;;;;;;;3.08;1.75;;;25.40;36.40;;;;;;5139138;27;20016;-38
2022/05/16 02:12:17;;;;;;;3.20;1.80;;;25.40;36.40;;;;;;5139062;27;20422;-41
2022/05/16 02:14:43;;;;;;;3.05;1.70;;;25.40;36.50;;;;;;5139612;27;20030;-40
2022/05/16 02:17:10;;;;;;;3.28;1.73;;;25.40;36.50;;;;;;5140670;27;20015;-40
2022/05/16 02:19:37;;;;;;;4.97;1.60;;;25.40;36.60;;;;;;5139588;27;20012;-39
2022/05/16 02:24:48;;;;;;;2.20;1.40;;;25.40;36.60;;;;;;5142033;27;20115;-41
2022/05/16 02:27:16;;;;;;;2.03;1.45;;;25.30;36.60;;;;;;5140201;27;20007;-39
2022/05/16 02:29:41;;;;;;;3.33;1.70;;;25.30;36.60;;;;;;5142183;27;20503;-40
2022/05/16 02:32:10;;;;;;;4.05;1.77;;;25.30;36.60;;;;;;5140092;27;20020;-40
2022/05/16 02:34:36;;;;;;;3.05;1.63;;;25.30;36.70;;;;;;5140348;27;20027;-39
2022/05/16 02:37:26;;;;;;;3.50;1.70;;;25.30;36.70;;;;;;5139332;27;20094;-40
2022/05/16 02:39:54;;;;;;;1.92;1.50;;;25.30;36.70;;;;;;5139832;27;20026;-40
2022/05/16 02:42:20;;;;;;;4.90;1.90;;;25.30;36.70;;;;;;5139699;27;20411;-39
2022/05/16 02:44:45;;;;;;;3.15;1.70;;;25.30;36.80;;;;;;5136989;27;20015;-40
2022/05/16 02:47:13;;;;;;;3.10;1.75;;;25.30;36.90;;;;;;5136836;27;20020;-39
2022/05/16 02:49:39;;;;;;;3.25;1.80;;;25.30;36.90;;;;;;5136848;27;20010;-39
2022/05/16 02:52:06;;;;;;;2.67;1.77;;;25.30;36.90;;;;;;5136051;27;20023;-39
2022/05/16 02:54:33;;;;;;;2.25;1.52;;;25.30;36.90;;;;;;5136453;27;20048;-39
2022/05/16 02:56:59;;;;;;;2.22;1.67;;;25.30;37.00;;;;;;5136761;27;20050;-39
2022/05/16 02:59:32;;;;;;;3.92;1.92;;;25.30;37.00;;;;;;5136791;27;20023;-40
2022/05/16 03:01:58;;;;;;;2.70;1.70;;;25.30;37.00;;;;;;5136902;27;20043;-38
2022/05/16 03:04:24;;;;;;;4.93;1.83;;;25.30;37.10;;;;;;5136598;27;20046;-39
2022/05/16 03:06:50;;;;;;;3.80;1.70;;;25.30;37.10;;;;;;5135082;27;20488;-38
2022/05/16 03:09:17;;;;;;;3.55;1.88;;;25.20;37.10;;;;;;5136595;27;20046;-38
2022/05/16 03:11:44;;;;;;;3.10;1.83;;;25.30;37.20;;;;;;5136424;27;20015;-39
2022/05/16 03:14:11;;;;;;;2.63;1.88;;;25.20;37.20;;;;;;5136014;27;20023;-39
2022/05/16 03:16:37;;;;;;;3.35;1.77;;;25.20;37.20;;;;;;5136431;27;20030;-40
2022/05/16 03:19:03;;;;;;;3.58;1.95;;;25.20;37.20;;;;;;5136975;27;20011;-42
2022/05/16 03:21:29;;;;;;;3.38;2.05;;;25.20;37.30;;;;;;5136385;27;20035;-41
2022/05/16 03:23:56;;;;;;;3.90;2.00;;;25.20;37.30;;;;;;5136011;27;20068;-39
2022/05/16 03:26:23;;;;;;;3.08;1.73;;;25.20;37.30;;;;;;5135672;27;20091;-39
2022/05/16 03:28:49;;;;;;;3.88;2.00;;;25.30;37.40;;;;;;5135146;27;20011;-39
2022/05/16 03:31:15;;;;;;;2.90;1.83;;;25.20;37.40;;;;;;5138589;27;20016;-41
2022/05/16 03:33:40;;;;;;;2.35;1.60;;;25.20;37.40;;;;;;5137259;27;20426;-40
2022/05/16 03:36:08;;;;;;;2.67;1.70;;;25.20;37.50;;;;;;5139104;27;20086;-39
2022/05/16 03:41:18;;;;;;;3.10;1.75;;;25.20;37.50;;;;;;5140171;27;20435;-43
2022/05/16 03:43:45;;;;;;;3.60;2.13;;;25.20;37.60;;;;;;5138669;27;20068;-40
2022/05/16 03:46:11;;;;;;;3.05;1.92;;;25.20;37.60;;;;;;5139056;27;20031;-44
2022/05/16 03:48:36;;;;;;;2.85;1.83;;;25.20;37.70;;;;;;5139953;27;20487;-39
2022/05/16 03:51:03;;;;;;;3.60;2.15;;;25.20;37.70;;;;;;5139417;27;20023;-40
2022/05/16 03:53:29;;;;;;;4.72;2.03;;;25.20;37.70;;;;;;5140271;27;20504;-40
2022/05/16 03:55:54;;;;;;;3.60;2.00;;;25.20;37.70;;;;;;5140101;27;20007;-43
2022/05/16 03:58:21;;;;;;;3.92;2.10;;;25.20;37.80;;;;;;5138771;27;20022;-38
2022/05/16 04:00:48;;;;;;;3.75;2.03;;;25.20;37.70;;;;;;5140102;27;20529;-40
2022/05/16 04:03:14;;;;;;;5.07;2.20;;;25.20;37.80;;;;;;5141572;27;20079;-39
2022/05/16 04:05:41;;;;;;;3.63;1.83;;;25.20;37.90;;;;;;5141317;27;20011;-39
2022/05/16 04:08:09;;;;;;;4.82;2.13;;;25.20;37.80;;;;;;5140207;27;20022;-39
2022/05/16 04:10:35;;;;;;;2.80;2.00;;;25.20;38.00;;;;;;5139467;27;20019;-44
2022/05/16 04:13:01;;;;;;;4.03;2.00;;;25.20;38.00;;;;;;5139215;27;20030;-44
2022/05/16 04:15:27;;;;;;;6.45;2.40;;;25.20;38.00;;;;;;5139922;27;20072;-44
2022/05/16 04:17:53;;;;;;;4.07;1.85;;;25.20;38.00;;;;;;5139172;27;20015;-41
2022/05/16 04:20:20;;;;;;;2.72;1.90;;;25.20;37.90;;;;;;5139249;27;20107;-41
2022/05/16 04:22:45;;;;;;;2.30;1.70;;;25.20;38.00;;;;;;5139162;27;20019;-40
2022/05/16 04:25:13;;;;;;;2.95;1.83;;;25.20;38.00;;;;;;5138849;27;20019;-40
2022/05/16 04:27:39;;;;;;;3.20;1.88;;;25.20;38.00;;;;;;5139911;27;20011;-41
2022/05/16 04:30:06;;;;;;;3.03;1.98;;;25.20;38.00;;;;;;5139702;27;20046;-39
2022/05/16 04:32:32;;;;;;;2.70;2.10;;;25.20;38.00;;;;;;5136927;27;20068;-39
2022/05/16 04:34:58;;;;;;;3.08;1.88;;;25.20;38.20;;;;;;5138512;27;20015;-42
2022/05/16 04:37:26;;;;;;;3.10;1.98;;;25.20;38.30;;;;;;5139227;27;20019;-39
2022/05/16 04:39:52;;;;;;;3.53;1.98;;;25.20;38.40;;;;;;5136312;27;20012;-39
2022/05/16 04:45:02;;;;;;;4.35;2.17;;;25.20;38.40;;;;;;5135384;28;20084;-39
2022/05/16 04:47:30;;;;;;;3.25;2.10;;;25.10;38.40;;;;;;5135866;28;20023;-39
2022/05/16 04:49:56;;;;;;;3.92;2.13;;;25.20;38.50;;;;;;5135192;27;20015;-39
2022/05/16 04:52:22;;;;;;;3.53;2.05;;;25.20;38.50;;;;;;5135131;28;20019;-40
2022/05/16 04:54:48;;;;;;;3.00;2.10;;;25.20;38.50;;;;;;5133205;28;20023;-41
2022/05/16 04:57:15;;;;;;;3.40;2.20;;;25.20;38.60;;;;;;5134773;27;20011;-39
2022/05/16 04:59:41;;;;;;;2.78;1.85;;;25.20;38.60;;;;;;5136715;27;20016;-40
2022/05/16 05:02:06;;;;;;;3.65;2.30;;;25.20;38.60;;;;;;5117446;28;20022;-41
2022/05/16 05:04:32;;;;;;;3.85;2.20;;;25.20;38.60;;;;;;5136289;28;20478;-39
2022/05/16 05:06:59;;;;;;;3.80;2.22;;;25.20;38.70;;;;;;5135668;28;20090;-40
2022/05/16 05:09:25;;;;;;;2.85;1.90;;;25.10;38.70;;;;;;5134402;28;20089;-39
2022/05/16 05:14:36;;;;;;;4.05;2.30;;;25.10;38.80;;;;;;5135418;28;20076;-40
2022/05/16 05:17:08;;;;;;;4.00;2.35;;;25.10;38.80;;;;;;5135805;27;20020;-38
2022/05/16 05:19:34;;;;;;;2.72;1.85;;;25.20;38.90;;;;;;5133827;28;20019;-41
2022/05/16 05:22:00;;;;;;;3.95;2.17;;;25.20;38.90;;;;;;5135894;27;20047;-40
2022/05/16 05:24:26;;;;;;;3.90;2.10;;;25.20;38.90;;;;;;5136842;27;20039;-39
2022/05/16 05:26:53;;;;;;;3.45;2.22;;;25.20;38.80;;;;;;5135310;27;20057;-39
2022/05/16 05:29:20;;;;;;;3.38;2.00;;;25.20;38.80;;;;;;5135405;28;20022;-39
2022/05/16 05:31:47;;;;;;;5.15;2.10;;;25.20;38.80;;;;;;5134927;27;20492;-39
2022/05/16 05:34:12;;;;;;;2.83;2.03;;;25.20;38.80;;;;;;5135799;27;20144;-38
2022/05/16 05:36:39;;;;;;;2.97;2.00;;;25.30;38.80;;;;;;5134470;28;20032;-38
2022/05/16 05:39:05;;;;;;;3.22;2.10;;;25.30;38.80;;;;;;5133910;27;20036;-39
2022/05/16 05:41:31;;;;;;;4.05;1.90;;;25.30;38.80;;;;;;5137521;27;20023;-39
2022/05/16 05:43:58;;;;;;;2.88;2.05;;;25.30;38.70;;;;;;5136927;27;20023;-38
2022/05/16 05:46:24;;;;;;;3.67;1.98;;;25.30;38.70;;;;;;5140164;27;20019;-39
2022/05/16 05:48:50;;;;;;;4.00;2.00;;;25.40;38.70;;;;;;5137311;27;20031;-38
2022/05/16 05:51:16;;;;;;;3.00;1.92;;;25.40;38.70;;;;;;5119348;27;20381;-38
2022/05/16 05:53:42;;;;;;;4.78;2.17;;;25.40;38.80;;;;;;5137604;27;20027;-39
2022/05/16 05:56:09;;;;;;;3.97;2.25;;;25.50;38.60;;;;;;5137903;27;20008;-38
2022/05/16 05:58:36;;;;;;;4.32;2.22;;;25.60;38.50;;;;;;5137153;27;20076;-38
2022/05/16 06:01:02;;;;;;;3.63;1.80;;;25.80;38.30;;;;;;5136504;27;20364;-38
2022/05/16 06:03:28;;;;;;;2.67;1.70;;;26.00;38.00;;;;;;5136867;27;20090;-39
2022/05/16 06:05:54;;;;;;;3.70;2.08;;;26.10;37.70;;;;;;5140192;27;20502;-41
2022/05/16 06:08:20;;;;;;;2.80;1.58;;;26.30;37.40;;;;;;5141120;27;20102;-42
2022/05/16 06:10:47;;;;;;;2.67;1.80;;;26.50;37.10;;;;;;5139982;27;20003;-42
2022/05/16 06:13:13;;;;;;;2.92;1.90;;;26.70;36.80;;;;;;5136382;27;20330;-40
2022/05/16 06:15:39;;;;;;;5.13;1.90;;;26.90;36.60;;;;;;5135888;27;20037;-40
2022/05/16 06:18:06;;;;;;;4.38;1.92;;;27.10;36.40;;;;;;5135946;27;20025;-39
2022/05/16 06:20:32;;;;;;;4.05;1.90;;;27.20;36.10;;;;;;5135570;27;20110;-39
2022/05/16 06:22:57;;;;;;;5.50;1.80;;;27.40;35.90;;;;;;5115997;27;20007;-38
2022/05/16 06:25:33;;;;;;;7.43;1.75;;;27.30;37.50;;;;;;5133335;27;20031;-39
2022/05/16 06:28:29;;;;;;;9.75;2.03;;;27.00;37.50;;;;;;5135565;27;20019;-38
2022/05/16 06:30:56;;;;;;;7.90;1.85;;;26.80;40.80;;;;;;5118877;27;20107;-39
2022/05/16 06:33:22;;;;;;;8.77;1.90;;;26.40;42.40;;;;;;5136020;27;20024;-38
2022/05/16 06:35:48;;;;;;;7.80;1.95;;;26.30;42.80;;;;;;5136234;27;20015;-38
2022/05/16 06:38:16;;;;;;;6.28;2.35;;;26.10;43.40;;;;;;5136578;27;20007;-38
2022/05/16 06:40:43;;;;;;;9.50;2.30;;;26.00;44.00;;;;;;5136174;27;20018;-38
2022/05/16 06:43:09;;;;;;;6.38;1.75;;;25.90;44.50;;;;;;5136621;27;20031;-39
2022/05/16 06:45:35;;;;;;;4.28;1.60;;;25.90;44.60;;;;;;5136023;27;20377;-39
2022/05/16 06:48:03;;;;;;;9.20;1.85;;;26.10;45.10;;;;;;5136182;27;20043;-38
2022/05/16 06:50:30;;;;;;;11.90;1.60;;;26.10;44.50;;;;;;5136083;27;20086;-38
2022/05/16 06:52:56;;;;;;;7.95;2.28;;;26.20;44.60;;;;;;5133753;27;20019;-36
2022/05/16 06:55:24;;;;;;;6.40;1.77;;;26.20;44.60;;;;;;5135663;27;20079;-37
2022/05/16 06:57:50;;;;;;;8.45;2.15;;;26.20;44.80;;;;;;5134537;27;20381;-37
2022/05/16 07:00:16;;;;;;;4.55;1.50;;;26.40;44.60;;;;;;5135520;27;20454;-37
2022/05/16 07:02:42;;;;;;;8.05;1.65;;;26.30;44.80;;;;;;5134552;27;20027;-36
2022/05/16 07:05:08;;;;;;;7.75;1.98;;;26.50;44.60;;;;;;5134414;27;20008;-36
2022/05/16 07:07:34;;;;;;;5.20;1.40;;;26.60;44.30;;;;;;5135981;27;20050;-37
2022/05/16 07:10:00;;;;;;;4.43;1.48;;;26.50;44.60;;;;;;5135083;27;20012;-36
2022/05/16 07:12:26;;;;;;;7.40;2.15;;;26.50;44.70;;;;;;5132884;27;20022;-36
2022/05/16 07:14:52;;;;;;;10.10;1.83;;;26.60;45.00;;;;;;5133603;27;20045;-37
2022/05/16 07:17:18;;;;;;;18.92;2.47;;;26.30;45.60;;;;;;5132033;27;20418;-36
2022/05/16 07:19:46;;;;;;;7.22;1.90;;;26.00;46.30;;;;;;5134374;27;20030;-37
2022/05/16 07:22:14;;;;;;;9.02;2.10;;;26.40;45.70;;;;;;5132379;27;20058;-37
2022/05/16 07:24:40;;;;;;;17.75;3.08;;;26.40;45.60;;;;;;5133715;27;20031;-37
2022/05/16 07:29:50;;;;;;;14.30;1.80;;;26.40;46.40;;;;;;5134128;27;20084;-37
2022/05/16 07:32:16;;;;;;;7.00;1.90;;;26.10;46.50;;;;;;5134298;27;20399;-37
2022/05/16 07:34:42;;;;;;;6.78;2.03;;;26.10;46.80;;;;;;5133960;27;20445;-37
2022/05/16 07:37:08;;;;;;;6.30;1.70;;;26.40;46.30;;;;;;5132379;27;20007;-38
2022/05/16 07:39:35;;;;;;;10.10;1.80;;;26.80;45.80;;;;;;5133750;27;20170;-36
2022/05/16 07:42:02;;;;;;;6.80;1.90;;;27.00;45.50;;;;;;5133407;27;20012;-37
2022/05/16 07:44:27;;;;;;;8.93;1.92;;;27.20;45.10;;;;;;5133926;27;20098;-37
2022/05/16 07:46:53;;;;;;;8.40;1.67;;;27.40;44.60;;;;;;5133954;27;20080;-36
2022/05/16 07:49:21;;;;;;;8.43;1.67;;;27.50;44.50;;;;;;5133614;27;20474;-37
2022/05/16 07:51:46;;;;;;;6.68;1.85;;;27.50;44.50;;;;;;5134134;27;20438;-36
2022/05/16 07:54:15;;;;;;;3.53;1.80;;;27.60;44.40;;;;;;5132299;27;20030;-36
2022/05/16 07:56:41;;;;;;;7.93;2.17;;;27.60;44.30;;;;;;5133481;27;20075;-36
2022/05/16 07:59:06;;;;;;;4.57;1.70;;;27.50;45.00;;;;;;5133374;27;20056;-37
2022/05/16 08:01:32;;;;;;;6.55;1.85;;;27.60;45.10;;;;;;5133339;27;20167;-40
2022/05/16 08:03:58;;;;;;;8.80;2.00;;;27.60;44.80;;;;;;5133138;27;20039;-38
2022/05/16 08:06:27;;;;;;;10.10;2.35;;;27.30;45.20;;;;;;5135114;27;20011;-39
2022/05/16 08:11:38;;;;;;;8.88;2.60;;;27.10;45.50;;;;;;5134637;27;20119;-37
2022/05/16 08:14:04;;;;;;;6.70;2.20;;;27.10;45.60;;;;;;5134980;27;20604;-38
2022/05/16 08:16:30;;;;;;;10.90;2.33;;;27.00;45.50;;;;;;5132090;27;20013;-38
2022/05/16 08:18:55;;;;;;;9.25;2.30;;;27.10;45.70;;;;;;5132233;27;20014;-37
2022/05/16 08:21:21;;;;;;;27.48;3.00;;;27.00;45.70;;;;;;5133577;27;20553;-38
2022/05/16 08:23:47;;;;;;;16.02;2.45;;;26.60;47.00;;;;;;5132807;27;20034;-38
2022/05/16 08:26:13;;;;;;;15.25;2.50;;;26.10;48.20;;;;;;5133815;27;20111;-38
2022/05/16 08:28:39;;;;;;;14.48;2.40;;;26.20;48.30;;;;;;5133546;27;20051;-38
2022/05/16 08:31:08;;;;;;;15.38;2.20;;;26.10;48.40;;;;;;5114886;27;20039;-38
2022/05/16 08:33:34;;;;;;;10.30;2.40;;;26.20;48.90;;;;;;5132205;27;20034;-37
2022/05/16 08:41:36;;;;;;;9.90;2.25;;;25.70;50.00;;;;;;5132400;27;20054;-38
2022/05/16 08:44:13;;;;;;;10.90;2.53;;;26.00;49.70;;;;;;5132240;27;20064;-38
2022/05/16 08:46:46;;;;;;;10.88;2.72;;;26.00;49.30;;;;;;5132052;28;20162;-38
2022/05/16 08:49:22;;;;;;;12.48;2.60;;;26.10;49.40;;;;;;5133343;27;20068;-38
2022/05/16 08:51:51;;;;;;;9.60;2.60;;;26.10;49.30;;;;;;5115001;28;20061;-38
2022/05/16 08:54:35;;;;;;;7.47;2.50;;;26.20;49.60;;;;;;5115386;28;20019;-38
2022/05/16 08:57:02;;;;;;;8.32;3.08;;;25.90;49.80;;;;;;5115038;28;20015;-38
2022/05/16 08:59:28;;;;;;;7.53;2.88;;;26.00;49.80;;;;;;5114106;28;20095;-38
2022/05/16 09:01:56;;;;;;;11.07;2.70;;;25.70;50.40;;;;;;5114591;28;20016;-38
2022/05/16 09:04:31;;;;;;;10.02;3.50;;;25.90;49.90;;;;;;5131354;28;20039;-39
2022/05/16 09:07:09;;;;;;;12.30;3.08;;;25.80;50.10;;;;;;5113231;28;20020;-38
2022/05/16 09:10:07;;;;;;;14.30;3.20;;;25.70;50.80;;;;;;5130846;28;20098;-39
2022/05/16 09:12:50;;;;;;;24.40;3.88;;;25.60;50.60;;;;;;5043811;27;20116;-38
2022/05/16 09:15:39;;;;;;;15.73;3.60;;;25.50;51.50;;;;;;5133450;27;20060;-38
2022/05/16 09:18:50;;;;;;;21.08;3.83;;;25.70;50.90;;;;;;5136710;27;20022;-38
2022/05/16 09:21:26;;;;;;;19.02;3.78;;;25.60;51.30;;;;;;5116288;27;20144;-38
2022/05/16 09:23:54;;;;;;;13.82;3.58;;;25.70;50.90;;;;;;5136571;27;20174;-38
2022/05/16 09:26:57;;;;;;;12.45;3.30;;;25.60;51.00;;;;;;5135336;27;20027;-38
2022/05/16 09:29:29;;;;;;;10.80;3.83;;;25.70;50.80;;;;;;5136842;27;20056;-38
2022/05/16 09:32:10;;;;;;;13.77;3.50;;;25.70;51.00;;;;;;5136562;27;20594;-39
2022/05/16 09:34:36;;;;;;;16.63;4.53;;;25.60;51.10;;;;;;5135345;27;20489;-39
2022/05/16 09:37:01;;;;;;;16.27;3.95;;;25.70;51.50;;;;;;5118316;27;20107;-38
2022/05/16 09:39:35;;;;;;;10.75;3.70;;;25.70;51.30;;;;;;5136568;27;20014;-38
2022/05/16 09:42:14;;;;;;;12.45;3.63;;;25.20;52.50;;;;;;5134901;27;20012;-38
2022/05/16 09:45:13;;;;;;;22.30;4.78;;;25.40;52.10;;;;;;5118442;27;20033;-38
2022/05/16 09:47:40;;;;;;;11.82;3.60;;;25.60;51.40;;;;;;5136375;27;20079;-39
2022/05/16 09:50:09;;;;;;;12.75;3.95;;;25.80;51.50;;;;;;5117741;27;20029;-38
2022/05/16 09:52:42;;;;;;;10.02;3.60;;;25.70;50.80;;;;;;5136275;27;20076;-39
2022/05/16 09:55:14;;;;;;;16.55;4.55;;;25.60;50.90;;;;;;5134657;27;20080;-40
2022/05/16 09:57:56;;;;;;;12.02;4.05;;;25.60;50.60;;;;;;5136205;27;20011;-38
2022/05/16 10:00:38;;;;;;;12.25;4.70;;;25.50;50.20;;;;;;5138067;27;20023;-38
2022/05/16 10:03:42;;;;;;;8.10;4.13;;;25.40;49.70;;;;;;5140491;27;20008;-39
2022/05/16 10:06:11;;;;;;;6.30;3.35;;;25.30;49.90;;;;;;5055531;28;20033;-39
2022/05/16 10:08:39;;;;;;;10.02;4.20;;;25.30;49.80;;;;;;5039214;28;20033;-40
2022/05/16 10:11:16;;;;;;;12.90;3.78;;;25.40;49.60;;;;;;5055282;28;20052;-41
2022/05/16 10:13:42;;;;;;;7.93;3.70;;;25.50;49.30;;;;;;5038782;28;20072;-41
2022/05/16 10:16:08;;;;;;;9.30;3.53;;;25.60;49.10;;;;;;5038380;28;20024;-39
2022/05/16 10:18:43;;;;;;;7.95;4.25;;;25.70;48.90;;;;;;5038760;28;20014;-40
2022/05/16 10:21:11;;;;;;;7.50;3.65;;;25.70;48.80;;;;;;5037835;28;20744;-40
2022/05/16 10:23:40;;;;;;;9.07;3.88;;;25.80;48.80;;;;;;5038486;28;20017;-43
2022/05/16 10:26:09;;;;;;;7.35;3.75;;;25.80;48.50;;;;;;5037902;28;20045;-39
2022/05/16 10:28:58;;;;;;;7.20;3.65;;;25.70;48.60;;;;;;5056071;28;20025;-40
2022/05/16 10:34:21;;;;;;;7.35;3.55;;;25.90;48.20;;;;;;5042018;28;20448;-39
2022/05/16 10:36:48;;;;;;;7.70;3.60;;;25.90;48.10;;;;;;5054698;28;20021;-39
2022/05/16 10:39:16;;;;;;;8.55;4.53;;;25.90;48.10;;;;;;5053789;27;20035;-40
2022/05/16 10:41:53;;;;;;;11.10;3.65;;;25.90;48.10;;;;;;5120155;27;20027;-40
2022/05/16 10:44:48;;;;;;;8.60;3.80;;;25.90;48.00;;;;;;5137651;27;20064;-40
2022/05/16 10:47:29;;;;;;;6.78;3.25;;;25.90;48.00;;;;;;5116271;27;20112;-39
2022/05/16 10:50:03;;;;;;;12.32;3.70;;;25.80;47.90;;;;;;5135232;27;20155;-39
2022/05/16 10:52:42;;;;;;;14.23;3.58;;;25.70;48.80;;;;;;5135489;27;20030;-39
2022/05/16 10:55:08;;;;;;;10.45;3.58;;;25.50;49.20;;;;;;5134242;27;20121;-38
2022/05/16 10:57:49;;;;;;;13.70;3.58;;;25.40;49.60;;;;;;5134162;27;20147;-39
2022/05/16 11:00:19;;;;;;;7.10;3.10;;;25.30;49.80;;;;;;5135534;27;20019;-38
2022/05/16 11:03:12;;;;;;;8.57;3.10;;;25.50;48.40;;;;;;5117107;27;20111;-39
2022/05/16 11:06:19;;;;;;;10.07;3.40;;;25.60;48.30;;;;;;5134939;27;20021;-39
2022/05/16 11:08:54;;;;;;;12.65;3.45;;;25.60;48.50;;;;;;5123614;27;20030;-39
2022/05/16 11:12:01;;;;;;;13.27;2.97;;;25.70;48.00;;;;;;5134990;27;20103;-38
2022/05/16 11:14:47;;;;;;;8.98;2.97;;;25.80;48.10;;;;;;5050972;28;20025;-38
2022/05/16 11:17:32;;;;;;;10.13;2.80;;;25.80;47.20;;;;;;5050986;28;20045;-39
2022/05/16 11:20:36;;;;;;;9.20;2.65;;;25.90;46.50;;;;;;5051316;28;20037;-38
2022/05/16 11:23:23;;;;;;;9.65;2.85;;;26.10;46.10;;;;;;5051382;28;20079;-38
2022/05/16 11:26:07;;;;;;;7.60;2.70;;;26.00;45.40;;;;;;5036597;28;20036;-37
2022/05/16 11:28:39;;;;;;;10.15;3.22;;;26.20;44.10;;;;;;5050728;28;20035;-36
2022/05/16 11:31:11;;;;;;;10.85;3.03;;;26.20;44.30;;;;;;5034042;28;20021;-36
2022/05/16 11:33:46;;;;;;;10.18;2.45;;;26.20;44.60;;;;;;5034424;28;20120;-37
2022/05/16 11:36:14;;;;;;;11.57;2.83;;;26.10;44.90;;;;;;5049824;28;20032;-37
2022/05/16 11:39:09;;;;;;;13.25;3.15;;;26.10;45.60;;;;;;5049716;28;20020;-38
2022/05/16 11:41:48;;;;;;;15.18;2.65;;;25.90;45.60;;;;;;5050427;28;20025;-37
2022/05/16 11:44:51;;;;;;;16.85;3.22;;;25.70;46.10;;;;;;5051559;28;20101;-38
2022/05/16 11:47:23;;;;;;;18.02;3.08;;;25.80;46.70;;;;;;5053644;27;20025;-37
2022/05/16 11:49:53;;;;;;;17.00;3.08;;;25.80;46.50;;;;;;5116843;27;20008;-37
2022/05/16 11:52:29;;;;;;;14.73;3.78;;;25.90;46.40;;;;;;5133756;27;20022;-37
2022/05/16 11:55:00;;;;;;;16.92;3.72;;;26.00;46.40;;;;;;5134733;27;20027;-37
2022/05/16 12:02:50;;;;;;;9.45;2.63;;;26.10;46.40;;;;;;5134564;27;20125;-36
2022/05/16 12:05:19;;;;;;;11.52;2.28;;;26.00;45.80;;;;;;5134514;27;20011;-36
2022/05/16 12:07:57;;;;;;;11.77;2.35;;;25.90;46.00;;;;;;5134491;27;20023;-37
2022/05/16 12:10:30;;;;;;;10.93;2.60;;;26.00;45.90;;;;;;5132943;27;20015;-38
2022/05/16 12:13:23;;;;;;;10.60;2.50;;;25.90;46.10;;;;;;5132809;27;20018;-36
2022/05/16 12:16:09;;;;;;;10.85;2.33;;;25.80;46.10;;;;;;5134328;27;20007;-37
2022/05/16 12:18:38;;;;;;;7.00;2.53;;;25.90;45.70;;;;;;5118957;27;20054;-38
2022/05/16 12:21:29;;;;;;;12.98;2.20;;;25.90;45.70;;;;;;5135031;27;20095;-38
2022/05/16 12:23:57;;;;;;;12.82;2.25;;;26.00;45.20;;;;;;5134022;27;20015;-38
2022/05/16 12:26:26;;;;;;;12.77;2.10;;;25.90;45.10;;;;;;5133886;27;20047;-38
2022/05/16 12:29:13;;;;;;;10.20;2.03;;;25.90;45.20;;;;;;5132030;27;20027;-39
2022/05/16 12:31:45;;;;;;;14.50;3.25;;;25.80;45.70;;;;;;5132689;27;20020;-38
2022/05/16 12:34:12;;;;;;;11.65;2.30;;;25.90;45.60;;;;;;5132892;27;20023;-38
2022/05/16 12:36:39;;;;;;;16.45;2.22;;;25.80;45.10;;;;;;5133341;27;20667;-38
2022/05/16 12:39:23;;;;;;;11.82;2.15;;;25.90;45.00;;;;;;5132226;28;20459;-38
2022/05/16 12:41:59;;;;;;;11.55;2.28;;;25.90;44.90;;;;;;5132625;27;20461;-39
2022/05/16 12:44:41;;;;;;;10.40;2.38;;;25.90;45.20;;;;;;5133881;27;20023;-38
2022/05/16 12:47:21;;;;;;;8.90;2.35;;;26.00;45.10;;;;;;5133704;27;20069;-38
2022/05/16 12:49:58;;;;;;;11.68;2.30;;;26.10;45.20;;;;;;5131554;27;20019;-38
2022/05/16 12:53:00;;;;;;;11.18;2.55;;;26.20;45.50;;;;;;5133289;28;20019;-39
2022/05/16 12:55:50;;;;;;;18.30;2.85;;;26.30;45.60;;;;;;5132329;28;20122;-38
2022/05/16 12:58:22;;;;;;;8.63;2.00;;;26.20;45.50;;;;;;5133957;28;20016;-38
2022/05/16 13:00:52;;;;;;;9.60;1.98;;;26.20;45.20;;;;;;5115798;28;20102;-38
2022/05/16 13:03:23;;;;;;;7.32;1.60;;;26.10;45.20;;;;;;5133497;27;20015;-40
2022/05/16 13:05:59;;;;;;;10.18;1.65;;;26.10;44.70;;;;;;5133870;28;20180;-38
2022/05/16 13:08:32;;;;;;;5.95;1.23;;;25.90;44.00;;;;;;5132548;27;20015;-39
2022/05/16 13:11:11;;;;;;;9.90;1.70;;;25.80;44.40;;;;;;5131612;28;20011;-37
2022/05/16 13:14:05;;;;;;;8.63;1.50;;;26.00;44.50;;;;;;5132314;27;20020;-37
2022/05/16 13:16:36;;;;;;;5.72;1.60;;;26.10;44.80;;;;;;5094133;27;20469;-38
2022/05/16 13:19:06;;;;;;;10.80;1.75;;;26.10;44.30;;;;;;5113625;28;20019;-38
2022/05/16 13:21:50;;;;;;;;;;;26.20;44.30;;;;;;5131159;28;20142;-37
2022/05/16 13:24:18;;;;;;;8.10;1.67;;;26.20;44.10;;;;;;5133543;28;19906;-39
2022/05/16 13:29:34;;;;;;;8.00;1.50;;;26.50;43.80;;;;;;5137281;28;20512;-40
2022/05/16 13:32:20;;;;;;;5.55;1.40;;;26.60;43.60;;;;;;5136739;27;20035;-41
2022/05/16 13:34:57;;;;;;;14.15;2.03;;;26.70;43.30;;;;;;5136547;28;20019;-40
2022/05/16 13:37:42;;;;;;;9.85;1.58;;;26.80;43.30;;;;;;5137000;28;20015;-43
2022/05/16 13:40:11;;;;;;;11.15;2.00;;;26.80;43.20;;;;;;5137934;27;20028;-39
2022/05/16 13:42:38;;;;;;;9.55;1.73;;;26.80;43.10;;;;;;5136833;27;20014;-41